Hlavní strana
METAR-TAF:

METAR-TAF

Letiště :

Huntsville, Alabama, Spojené státy americké

zeměpisná šířka: 34-38-37N, zeměpisná délka: 086-47-08W, výška: 192 m

Aktuální stav počasí

Zpráva byla vytvořena před 53 minutami, v 13:53 UTC
Severoseverozápadní vítr 6 kt
Teplota 6°C
Vlhkost vzduchu 81%
Tlak 1021 hPa
Viditelnost: 16.1 km
Jasno

METAR: KHSV 031353Z 33006KT 10SM CLR 06/03 A3015 RMK AO2 SLP210 T00560028

Čas: 08:46 (14:46 UTC)

Předpověď počasí

Zpráva byla vytvořena před 3 hodinami a 26 minutami, v 11:20 UTC
Předpověď platná od 03 v 12 UTC do 04 v 12 UTC
vítr z různých směrů 4 kt
Viditelnost: 10 km
Jasno
Od 03 v 1500 UTC
Severoseverozápadní vítr 7 kt
Viditelnost: 10 km
Jasno
Od 04 v 0000 UTC
vítr z různých směrů 3 kt
Viditelnost: 10 km
Jasno

TAF: KHSV 031120Z 0312/0412 VRB04KT P6SM SKC FM031500 33007KT P6SM SKC FM040000 VRB03KT P6SM SKC

Stav a předpovědi počasí z více než 4 000 letišť (zprávy METAR a TAF).

Červené a žluté tečky na mapě představují dostupné meteorologické stanice.

Když kurzor umístíte na tečku, zobrazí se název stanice.

Pak kliknutím zobrazíte stav a předpověď počasí.

Chcete-li změnit mapu, kliknutím na zelené tlačítko se znaménkem +mapu přiblížíte, kliknutím na zelené tlačítko se znaménkem – mapu oddálíte a kliknutím na zelené šipky přejdete na sousední mapy.


METAR-TAF: